»·PEaware :: N712TF KBOI-KAPA

N712TF :: KBOI-KAPA

FLIGHT INFORMATION

Flight Status: Arrived
Operator: Privately registered:
United States
More flights under this callsign
Pilot: Tyler J. (19619)
Aircraft: BOEING 717-200
(B712)
More flights by this aircraft type
Origin: KBOI Boise Air Terminal/Gowen
United States
Destination: KAPA Centennial
United States
More flights between these airports :: More routes between these airports
Route: +BOI3 ROARR PIH J163 OCS BANNA PINNR1
File this flight plan on PilotEdge
Remarks:
Altitude:
(Current/Filed)
35,000ft
Speed:
(Current/Filed)
450kts
Departed: 18-May-20 01:03 PM
Arrived: 18-May-20 02:37 PM
Distance/Time
Traveled:
563nm/1:34
Distance/Time
To Go:
Arrived

Flight Plot

Page will automatically refresh every two minutes.


Map Options




Map Legend


Flown Route
Filed Route
Departure Airport
Arrival Airport
Navaid (VOR, NDB)
Fix

Horizontal Profiles

Position Reports

Time Latitude Longitude Heading Altitude Ground
Speed
18-May-20 12:33 43.564089 -116.237003 351 2879ft 0kts
18-May-20 12:34 43.564089 -116.237003 351 2879ft 0kts
18-May-20 12:35 43.564089 -116.237003 351 2879ft 0kts
18-May-20 12:36 43.564089 -116.237003 351 2879ft 0kts
18-May-20 12:37 43.564089 -116.237003 351 2879ft 0kts
18-May-20 12:38 43.564089 -116.237003 351 2879ft 0kts
18-May-20 12:39 43.564089 -116.237003 351 2879ft 0kts
18-May-20 12:40 43.564089 -116.237003 351 2879ft 0kts
18-May-20 12:41 43.564089 -116.237003 351 2879ft 0kts
18-May-20 12:42 43.564089 -116.237003 351 2879ft 0kts
18-May-20 12:43 43.564089 -116.237003 351 2879ft 0kts
18-May-20 12:44 43.564089 -116.237003 351 2879ft 0kts
18-May-20 12:45 43.564089 -116.237003 351 2879ft 0kts
18-May-20 12:46 43.564089 -116.237003 351 2879ft 0kts
18-May-20 12:47 43.564089 -116.237003 351 2879ft 0kts
18-May-20 12:48 43.564089 -116.237003 351 2879ft 0kts
18-May-20 12:49 43.564089 -116.237003 351 2879ft 0kts
18-May-20 12:50 43.564089 -116.237003 351 2879ft 0kts
18-May-20 12:51 43.564089 -116.237003 351 2879ft 0kts
18-May-20 12:52 43.564089 -116.237003 351 2879ft 0kts
18-May-20 12:53 43.564089 -116.237003 351 2879ft 0kts
18-May-20 12:54 43.564089 -116.237003 350 2879ft 0kts
18-May-20 12:55 43.564090 -116.237003 350 2879ft 0kts
18-May-20 12:56 43.564545 -116.236572 73 2879ft 12kts
18-May-20 12:57 43.564981 -116.232104 114 2879ft 19kts
18-May-20 12:58 43.561504 -116.221712 114 2879ft 20kts
18-May-20 12:59 43.559297 -116.215029 115 2879ft 19kts
18-May-20 13:00 43.557815 -116.210238 59 2879ft 0kts
18-May-20 13:01 43.558351 -116.209805 26 2879ft 9kts
18-May-20 13:02 43.561969 -116.218906 294 2879ft 114kts
18-May-20 13:03 43.580124 -116.285106 290 5113ft 224kts
18-May-20 13:04 43.605966 -116.376114 292 7947ft 269kts
18-May-20 13:05 43.628101 -116.477714 260 11061ft 298kts
18-May-20 13:06 43.563328 -116.544431 173 12257ft 354kts
18-May-20 13:07 43.496702 -116.444052 99 14216ft 411kts
18-May-20 13:08 43.483372 -116.286953 112 15932ft 416kts
18-May-20 13:09 43.451762 -116.134065 111 16002ft 415kts
18-May-20 13:10 43.419968 -115.979286 112 17803ft 426kts
18-May-20 13:11 43.386967 -115.819958 112 19546ft 439kts
18-May-20 13:12 43.352904 -115.656777 112 21149ft 449kts
18-May-20 13:13 43.317844 -115.490131 113 22564ft 458kts
18-May-20 13:14 43.284856 -115.318528 108 23802ft 473kts
18-May-20 13:15 43.259349 -115.139540 109 24898ft 482kts
18-May-20 13:16 43.233135 -114.959069 110 26322ft 481kts
18-May-20 13:17 43.206750 -114.779585 111 27852ft 478kts
18-May-20 13:18 43.180235 -114.601305 112 29370ft 476kts
18-May-20 13:19 43.153599 -114.424268 113 30918ft 474kts
18-May-20 13:20 43.126772 -114.247765 113 32433ft 472kts
18-May-20 13:21 43.099732 -114.071892 113 33914ft 470kts
18-May-20 13:22 43.072473 -113.896639 113 34804ft 473kts
18-May-20 13:23 43.044987 -113.721535 113 34826ft 470kts
18-May-20 13:24 43.017141 -113.546080 113 34826ft 471kts
18-May-20 13:25 42.989077 -113.371119 113 34826ft 471kts
18-May-20 13:26 42.960788 -113.196564 113 34828ft 471kts
18-May-20 13:27 42.932053 -113.021048 113 34832ft 472kts
18-May-20 13:28 42.903165 -112.846429 113 34834ft 472kts
18-May-20 13:29 42.873730 -112.671461 115 34836ft 471kts
18-May-20 13:30 42.824123 -112.511004 125 34835ft 456kts
18-May-20 13:31 42.771679 -112.353068 124 34837ft 458kts
18-May-20 13:32 42.718950 -112.195178 124 34839ft 458kts
18-May-20 13:33 42.665912 -112.037293 124 34847ft 460kts
18-May-20 13:34 42.612571 -111.879391 124 34875ft 461kts
18-May-20 13:35 42.558860 -111.721316 124 34908ft 461kts
18-May-20 13:36 42.504746 -111.562983 124 34924ft 462kts
18-May-20 13:37 42.450526 -111.405237 124 34936ft 462kts
18-May-20 13:38 42.396011 -111.247542 124 34949ft 462kts
18-May-20 13:39 42.341226 -111.089958 124 34956ft 463kts
18-May-20 13:40 42.285838 -110.931561 123 34973ft 464kts
18-May-20 13:41 42.230512 -110.774224 123 35009ft 466kts
18-May-20 13:42 42.174509 -110.615855 123 35022ft 466kts
18-May-20 13:43 42.118435 -110.458180 123 35030ft 467kts
18-May-20 13:44 42.061715 -110.299587 123 35034ft 468kts
18-May-20 13:45 42.005048 -110.142030 123 35035ft 469kts
18-May-20 13:46 41.947991 -109.984271 123 35042ft 469kts
18-May-20 13:47 41.890705 -109.826757 123 35042ft 469kts
18-May-20 13:48 41.833120 -109.669296 123 35028ft 469kts
18-May-20 13:49 41.775493 -109.512594 123 35023ft 468kts
18-May-20 13:50 41.717624 -109.356085 123 35027ft 469kts
18-May-20 13:52 41.659338 -109.199325 122 35033ft 470kts
18-May-20 13:53 41.601159 -109.043191 119 35034ft 471kts
18-May-20 13:54 41.567709 -108.870468 106 35033ft 482kts
18-May-20 13:55 41.539980 -108.695513 106 35032ft 482kts
18-May-20 13:56 41.511884 -108.520425 106 35040ft 482kts
18-May-20 13:57 41.483515 -108.345440 106 35045ft 482kts
18-May-20 13:58 41.454873 -108.170575 106 35050ft 482kts
18-May-20 13:59 41.425965 -107.995856 107 35055ft 482kts
18-May-20 14:00 41.396784 -107.821245 106 35064ft 482kts
18-May-20 14:01 41.367376 -107.646990 106 35070ft 483kts
18-May-20 14:02 41.337718 -107.472977 106 35075ft 482kts
18-May-20 14:03 41.307721 -107.298682 106 35078ft 482kts
18-May-20 14:04 41.277560 -107.125106 106 35105ft 482kts
18-May-20 14:05 41.247116 -106.951569 106 35109ft 483kts
18-May-20 14:06 41.216381 -106.778014 106 35120ft 482kts
18-May-20 14:06 41.190501 -106.633142 106 35015ft 485kts
18-May-20 14:08 41.153796 -106.429586 107 32082ft 480kts
18-May-20 14:09 41.122105 -106.257070 110 29747ft 482kts
18-May-20 14:09 41.071047 -106.127514 125 27415ft 474kts
18-May-20 14:10 41.002729 -105.976820 124 24333ft 473kts
18-May-20 14:12 40.925598 -105.806952 124 20610ft 450kts
18-May-20 14:12 40.872509 -105.690622 124 18061ft 436kts
18-May-20 14:13 40.812680 -105.560382 124 16850ft 385kts
18-May-20 14:14 40.760951 -105.448519 124 16362ft 328kts
18-May-20 14:15 40.715469 -105.350558 124 15419ft 314kts
18-May-20 14:16 40.668730 -105.250004 124 14028ft 318kts
18-May-20 14:17 40.622998 -105.151883 123 12655ft 311kts
18-May-20 14:18 40.577356 -105.057349 133 11365ft 303kts
18-May-20 14:19 40.501150 -105.026299 180 10719ft 295kts
18-May-20 14:20 40.418921 -105.025680 180 10583ft 297kts
18-May-20 14:21 40.337341 -105.024753 180 10343ft 289kts
18-May-20 14:22 40.256675 -105.023707 180 10107ft 290kts
18-May-20 14:23 40.176477 -105.022741 180 9494ft 281kts
18-May-20 14:24 40.100900 -105.021877 180 9024ft 256kts
18-May-20 14:25 40.028571 -105.021039 180 9057ft 280kts
18-May-20 14:26 39.951171 -105.037385 191 9047ft 283kts
18-May-20 14:27 39.873677 -105.056489 189 9063ft 283kts
18-May-20 14:28 39.795983 -105.072099 184 9059ft 270kts
18-May-20 14:29 39.729731 -105.075541 170 9032ft 231kts
18-May-20 14:30 39.669050 -105.047672 159 9038ft 231kts
18-May-20 14:31 39.609109 -105.017606 159 9033ft 231kts
18-May-20 14:32 39.549417 -104.987702 159 9011ft 227kts
18-May-20 14:33 39.509358 -104.939296 95 7874ft 180kts
18-May-20 14:34 39.509787 -104.877626 80 7126ft 161kts
18-May-20 14:35 39.545274 -104.849782 3 6166ft 160kts
18-May-20 14:36 39.576397 -104.851113 4 5891ft 21kts
18-May-20 14:37 39.577361 -104.849952 88 5891ft 11kts
18-May-20 14:38 39.578252 -104.848857 173 5891ft 0kts

Navigation Log

Ident Type
Flight plan parsing failed, navigation log unavailable